Detall de PIREP

Printer-friendly versionPDF version

[2013/04/05 18:26:00]
Flight IATA:CT1003
Pilot Number:026
Company ICAO:CAT
Aircraft Type:DC85/A
PAX:0
Aircraft Registration:CARGO
Departing Airport: LEGE
Destination Airport: LFML
Alternate Airport:LFMN
Online: VATSIM
Route:BEXUR H110 DIBER A6 BALMO N86 SOSUR
Flight Level:F160
No Slew and time accel
No pause
Crash detect
Detect pilot in Cockpit between each 30 and 45 minutes
18:26 Zero fuel Weight: 187755 Lbs, Fuel Weight: 22001 Lbs
18:26 VATSIM:LEGE 051900Z 02003KT 330V120 5000 BR -DZ FEW010 BKN038 07/06 Q1008
18:26 VATSIM:LFML 051854Z 34008G20KT 290V010 9999 FEW020 SCT080 BKN260 13/06 Q1005 NOSIG
18:26 VOICE CATALONIAN / CPT LFML
18:31 Parking Brakes off
18:36 Take-off
18:36 Take off Weight: 208806 Lbs
18:36 Wind: 350º @ 003 Knots Heading: 015º
18:36 POS N41º 54´ 43´´ E002º 45´ 53´´
18:36 Gear Up: 167 Knots
18:36 Flaps:2 at 167 Knots
18:37 Flaps:1 at 188 Knots
18:37 Flaps:0 at 206 Knots
18:37 Flaps:1 at 209 Knots
18:38 Flaps:0 at 217 Knots
18:44 TOC
18:44 Fuel Weight: 18466 Lb
18:51 Wind:325º@024 Knots Heading: 082º Ground Speed: 386 Knots Altitude 15823 ft
18:56 TOD
18:56 Fuel Weight: 15976 Lb
19:06 Wind:329º@021 Knots Heading: 019º Ground Speed: 225 Knots Altitude 7851 ft
19:11 Flaps:1 at 206 Knots
19:12 Gear Down: 184 Knots
19:12 Flaps:2 at 203 Knots
19:13 Flaps:1 at 197 Knots
19:13 Flaps:0 at 221 Knots
19:13 Gear Up: 224 Knots
19:13 Flaps:1 at 240 Knots
19:16 Flaps:0 at 218 Knots
19:21 Wind:316º@016 Knots Heading: 175º Ground Speed: 255 Knots Altitude 4022 ft
19:36 Wind:299º@008 Knots Heading: 357º Ground Speed: 246 Knots Altitude 2201 ft
19:37 Flaps:1 at 211 Knots
19:38 Gear Down: 169 Knots
19:38 Flaps:2 at 170 Knots
19:38 Flaps:3 at 157 Knots
19:39 Flaps:4 at 144 Knots
19:39 Flaps:5 at 141 Knots
19:40 TouchDown:Rate -658 ft/min Speed: 123 Knots
19:40 Flaps:4 at 70 Knots
19:40 VATSIM:LFML 052030Z 29007KT 9999 FEW040 SCT260 10/05 Q1006 NOSIG
19:40 Land
19:40 Wind:294º@007 Knots
19:40 Heading: 314º
19:40 Flight Duration: 01:04
19:40 Landing Weight: 199150 Lbs
19:40 POS N43º 26´ 18´´ E005º 12´ 44´´
19:43 Parking brakes on
19:43 Block to Block Duration: 01:12
19:43 Final Fuel: 11128 Lbls
19:43 Spent Fuel: 10873 Lbls
19:43 Flight Length: 283 NM
19:43 TOD Land Length: 170 NM

Exportar CSV

Powered by Drupal - Modified by Danger4k